Current Conditions
Clear
Conditions



Pressure
1019.92 (hPa) - 30.12 (inHG)
Visibility

0.0 (km) - 0.0 (miles)
   Temperature
10  °C
50°F
9  °C
Dewpoint
94  %
 Humidity
   Wind Speed
3  km/h
2  kts
2  mph
0.9  m/s
   Wind Direction
Calm
Due North
   Airport Data
LSMM
Location Meiringen 6 km (3.73 mi)
Metar :LSMM 080350Z AUTO VRB02KT 9999NDV NCD 10/09 Q1020 RMK
Wed 8th July 05:50 am
   Raw Metar Info
Raw METAR is the most common format in the world for the transmission of observational weather data. It is highly standardized through the International Civil Aviation Organization (ICAO), which allows it to be understood throughout most of the world.
   API Info
Data Provided by
https://www.checkwx.com/weather/LSMM
   © Info
CSS/SVG/PHP scripts were developed by weather34.com for use in the weather34 template © 2015-2020

Guide Info provided by Metar-Wikipedia